Sainte-Cecile-De-Masham, Canada
Current Conditions -  °F | °C
As of 9:00 PM on Thursday 27 Nov 2014 (Local Time) from CYND Reporting Station
Overcast Overcast  
Wind Chill: 19°   Ceiling: 3500
Heat Index: 25°   Visibility: 15mi
Dew Point: 18°   Wind: 5mph
Humidity: 74%   Direction: 270°W
Pressure: 30.06"   Gusts: NA
Location:  45.65°N, 76.03°W
Report Text: CYND 280200Z 27004KT 15SM OVC035 M04/M08 A3006 RMK SC8 LAST OBS/NEXT 281200 UTC SLP183
Loading
Personal Weather Stations






























Interactive Weather Map New forecast layout! Learn more

10-Day Weather Forecast

Advertisements
Track Severe Weather on mobile